createdAt,value
2023-02-19T00:01:55.421Z,62.58
2023-02-19T00:04:23.907Z,62.73
2023-02-19T00:06:52.393Z,62.92
2023-02-19T00:09:21.654Z,62.89
2023-02-19T00:11:50.315Z,62.81
2023-02-19T00:14:20.299Z,62.89
2023-02-19T00:16:49.535Z,63.21
2023-02-19T00:19:20.992Z,63.14
2023-02-19T00:21:49.668Z,63.33
2023-02-19T00:24:17.741Z,63.89
2023-02-19T00:26:47.725Z,63.95
2023-02-19T00:29:17.959Z,64.25
2023-02-19T00:31:46.620Z,64.17
2023-02-19T00:34:15.393Z,64.60
2023-02-19T00:36:45.302Z,64.95
2023-02-19T00:39:16.049Z,64.86
2023-02-19T00:41:44.490Z,65.03
2023-02-19T00:44:13.693Z,65.16
2023-02-19T00:46:44.033Z,65.77
2023-02-19T00:49:18.150Z,65.18
2023-02-19T00:51:47.799Z,64.89
2023-02-19T00:54:17.243Z,64.64
2023-02-19T00:56:45.531Z,63.88
2023-02-19T00:59:14.698Z,63.49
2023-02-19T01:01:44.595Z,63.05
2023-02-19T01:04:12.980Z,62.83
2023-02-19T01:06:41.366Z,62.90
2023-02-19T01:09:10.884Z,62.51
2023-02-19T01:11:39.122Z,62.00
2023-02-19T01:14:07.489Z,61.73
2023-02-19T01:16:35.759Z,61.42
2023-02-19T01:19:04.301Z,61.14
2023-02-19T01:21:32.794Z,60.92
2023-02-19T01:24:01.387Z,61.03
2023-02-19T01:26:32.491Z,61.33
2023-02-19T01:29:01.686Z,61.45
2023-02-19T01:31:30.917Z,61.39
2023-02-19T01:34:00.899Z,61.44
2023-02-19T01:36:29.647Z,61.56
2023-02-19T01:38:57.833Z,61.33
2023-02-19T01:41:27.258Z,61.21
2023-02-19T01:44:00.899Z,61.26
2023-02-19T01:46:29.678Z,61.28
2023-02-19T01:49:02.472Z,61.03
2023-02-19T01:51:33.163Z,61.29
2023-02-19T01:54:05.808Z,60.97
2023-02-19T01:56:38.519Z,60.86
2023-02-19T01:59:09.126Z,60.82
2023-02-19T02:01:40.142Z,60.88
2023-02-19T02:04:11.125Z,61.15
2023-02-19T02:06:47.216Z,61.24
2023-02-19T02:09:33.490Z,61.40
2023-02-19T02:12:01.534Z,61.41
2023-02-19T02:14:35.710Z,61.61
2023-02-19T02:17:14.635Z,61.21
2023-02-19T02:20:03.320Z,61.40
2023-02-19T02:22:36.281Z,61.50
2023-02-19T02:25:22.055Z,61.47
2023-02-19T02:28:03.578Z,61.08
2023-02-19T02:30:43.375Z,61.19
2023-02-19T02:33:23.399Z,61.49
2023-02-19T02:35:55.654Z,61.71
2023-02-19T02:38:28.440Z,61.43
2023-02-19T02:40:58.121Z,61.67
2023-02-19T02:43:26.620Z,61.48
2023-02-19T02:45:56.182Z,61.74
2023-02-19T02:48:33.437Z,61.55
2023-02-19T02:51:07.842Z,61.30
2023-02-19T02:54:00.437Z,61.47
2023-02-19T02:56:29.260Z,61.31
2023-02-19T02:58:59.600Z,61.11
2023-02-19T03:01:50.658Z,61.52
2023-02-19T03:04:25.768Z,61.43
2023-02-19T03:06:55.366Z,61.55
2023-02-19T03:09:30.436Z,61.54
2023-02-19T03:12:19.254Z,61.50
2023-02-19T03:15:07.882Z,61.63
2023-02-19T03:18:00.836Z,61.10
2023-02-19T03:20:31.159Z,60.74
2023-02-19T03:23:01.646Z,60.78
2023-02-19T03:25:50.489Z,60.86
2023-02-19T03:28:44.229Z,61.35
2023-02-19T03:31:15.045Z,61.69
2023-02-19T03:33:46.777Z,61.95
2023-02-19T03:36:16.577Z,62.24
2023-02-19T03:38:50.665Z,62.55
2023-02-19T03:41:27.683Z,62.30
2023-02-19T03:44:04.996Z,62.28
2023-02-19T03:46:42.106Z,62.18
2023-02-19T03:49:23.698Z,62.21
2023-02-19T03:51:55.095Z,62.00
2023-02-19T03:54:33.286Z,62.08
2023-02-19T03:57:05.619Z,62.17
2023-02-19T03:59:42.516Z,62.42
2023-02-19T04:02:14.967Z,61.69
2023-02-19T04:04:48.649Z,60.98
2023-02-19T04:07:16.942Z,60.33
2023-02-19T04:09:48.230Z,59.56
2023-02-19T04:12:18.676Z,58.49
2023-02-19T04:14:53.552Z,57.98
2023-02-19T04:17:25.854Z,56.87
2023-02-19T04:19:57.401Z,55.84
2023-02-19T04:22:26.686Z,55.53
2023-02-19T04:24:56.781Z,55.00
2023-02-19T04:27:25.097Z,54.66
2023-02-19T04:29:53.235Z,54.59
2023-02-19T04:32:21.367Z,54.74
2023-02-19T04:34:49.514Z,54.72
2023-02-19T04:37:18.986Z,54.83
2023-02-19T04:39:47.331Z,54.43
2023-02-19T04:42:15.436Z,54.24
2023-02-19T04:44:43.668Z,53.97
2023-02-19T04:47:11.865Z,53.84
2023-02-19T04:49:39.974Z,53.81
2023-02-19T04:52:08.118Z,53.80
2023-02-19T04:54:37.696Z,53.69
2023-02-19T04:57:05.941Z,53.80
2023-02-19T04:59:34.352Z,53.77
2023-02-19T05:02:02.612Z,53.46
2023-02-19T05:04:30.834Z,53.39
2023-02-19T05:06:58.949Z,52.74
2023-02-19T05:09:27.085Z,52.45
2023-02-19T05:11:56.523Z,52.16
2023-02-19T05:14:24.854Z,51.98
2023-02-19T05:16:53.103Z,51.67
2023-02-19T05:19:21.179Z,51.64
2023-02-19T05:21:49.241Z,51.54
2023-02-19T05:24:17.414Z,51.24
2023-02-19T05:26:45.651Z,50.81
2023-02-19T05:29:15.159Z,50.55
2023-02-19T05:31:43.431Z,50.23
2023-02-19T05:34:11.709Z,49.90
2023-02-19T05:36:40.688Z,49.23
2023-02-19T05:39:09.613Z,48.44
2023-02-19T05:41:37.734Z,48.13
2023-02-19T05:44:05.857Z,47.24
2023-02-19T05:46:35.648Z,46.81
2023-02-19T05:49:04.333Z,46.69
2023-02-19T05:51:32.464Z,46.21
2023-02-19T05:54:00.581Z,46.90
2023-02-19T05:56:33.545Z,46.88
2023-02-19T05:59:03.909Z,47.36
2023-02-19T06:01:32.465Z,47.25
2023-02-19T06:04:02.249Z,46.65
2023-02-19T06:06:30.496Z,47.23
2023-02-19T06:08:58.688Z,46.76
2023-02-19T06:11:27.288Z,46.29
2023-02-19T06:13:57.599Z,46.59
2023-02-19T06:16:25.810Z,47.00
2023-02-19T06:18:54.151Z,46.90
2023-02-19T06:21:23.709Z,46.37
2023-02-19T06:23:51.838Z,45.90
2023-02-19T06:26:22.844Z,45.81
2023-02-19T06:28:52.704Z,45.57
2023-02-19T06:31:22.391Z,45.94
2023-02-19T06:33:51.034Z,46.39
2023-02-19T06:36:21.590Z,46.75
2023-02-19T06:38:51.109Z,46.76
2023-02-19T06:41:19.769Z,47.17
2023-02-19T06:43:48.110Z,47.37
2023-02-19T06:46:16.315Z,47.34
2023-02-19T06:48:47.464Z,47.62
2023-02-19T06:51:18.850Z,47.75
2023-02-19T06:53:47.420Z,47.47
2023-02-19T06:56:25.714Z,47.86
2023-02-19T06:58:54.704Z,47.85
2023-02-19T07:01:23.236Z,47.92
2023-02-19T07:03:52.643Z,47.98
2023-02-19T07:06:21.475Z,48.01
2023-02-19T07:08:50.289Z,48.08
2023-02-19T07:11:19.580Z,48.42
2023-02-19T07:13:49.197Z,48.14
2023-02-19T07:16:18.179Z,48.41
2023-02-19T07:18:46.325Z,48.56
2023-02-19T07:21:16.185Z,48.14
2023-02-19T07:23:45.282Z,48.43
2023-02-19T07:26:16.144Z,48.22
2023-02-19T07:28:45.032Z,48.19
2023-02-19T07:31:16.030Z,48.30
2023-02-19T07:33:44.777Z,47.59
2023-02-19T07:36:13.755Z,47.78
2023-02-19T07:38:41.849Z,47.21
2023-02-19T07:41:10.148Z,47.19
2023-02-19T07:43:39.913Z,46.68
2023-02-19T07:46:09.279Z,46.79
2023-02-19T07:48:39.857Z,46.40
2023-02-19T07:51:12.339Z,46.21
2023-02-19T07:53:40.712Z,46.30
2023-02-19T07:56:09.427Z,45.67
2023-02-19T07:58:37.532Z,45.40
2023-02-19T08:01:10.642Z,45.02
2023-02-19T08:03:39.830Z,45.48
2023-02-19T08:06:08.602Z,45.14
2023-02-19T08:08:36.904Z,45.28
2023-02-19T08:11:23.549Z,44.92
2023-02-19T08:13:52.994Z,44.38
2023-02-19T08:16:33.215Z,44.62
2023-02-19T08:19:06.609Z,44.68
2023-02-19T08:21:34.657Z,44.51
2023-02-19T08:24:02.675Z,44.45
2023-02-19T08:26:30.769Z,44.14
2023-02-19T08:28:59.131Z,43.93
2023-02-19T08:31:27.472Z,44.50
2023-02-19T08:33:55.653Z,44.20
2023-02-19T08:36:25.176Z,44.65
2023-02-19T08:38:53.488Z,44.45
2023-02-19T08:41:21.875Z,44.17
2023-02-19T08:43:49.970Z,44.33
2023-02-19T08:46:18.157Z,43.99
2023-02-19T08:48:46.312Z,43.77
2023-02-19T08:51:14.843Z,43.88
2023-02-19T08:53:44.434Z,43.73
2023-02-19T08:56:14.374Z,43.84
2023-02-19T08:58:42.478Z,43.87
2023-02-19T09:01:12.087Z,44.08
2023-02-19T09:03:40.625Z,43.85
2023-02-19T09:06:09.502Z,43.80
2023-02-19T09:08:37.834Z,43.53
2023-02-19T09:11:08.227Z,43.53
2023-02-19T09:13:37.407Z,43.63
2023-02-19T09:16:06.088Z,43.86
2023-02-19T09:18:34.452Z,43.45
2023-02-19T09:21:02.787Z,43.45
2023-02-19T09:23:30.982Z,43.34
2023-02-19T09:26:00.122Z,43.22
2023-02-19T09:28:29.916Z,43.49
2023-02-19T09:30:58.012Z,43.17
2023-02-19T09:33:26.140Z,43.31
2023-02-19T09:35:54.489Z,43.33
2023-02-19T09:38:22.666Z,43.45
2023-02-19T09:40:50.750Z,43.33
2023-02-19T09:43:21.845Z,43.47
2023-02-19T09:46:01.122Z,43.67
2023-02-19T09:48:29.321Z,43.32
2023-02-19T09:50:59.187Z,43.04
2023-02-19T09:53:30.840Z,43.22
2023-02-19T09:56:00.252Z,43.15
2023-02-19T09:58:33.499Z,42.76
2023-02-19T10:01:05.881Z,42.80
2023-02-19T10:03:41.539Z,42.61
2023-02-19T10:06:17.187Z,42.64
2023-02-19T10:08:47.190Z,42.53
2023-02-19T10:11:15.810Z,41.95
2023-02-19T10:13:48.756Z,41.65
2023-02-19T10:16:21.605Z,41.30
2023-02-19T10:18:49.926Z,41.23
2023-02-19T10:21:20.892Z,40.93
2023-02-19T10:23:52.136Z,41.30
2023-02-19T10:26:20.893Z,41.23
2023-02-19T10:28:49.020Z,41.29
2023-02-19T10:31:21.276Z,40.92
2023-02-19T10:33:51.848Z,40.91
2023-02-19T10:36:28.289Z,40.47
2023-02-19T10:38:58.534Z,40.22
2023-02-19T10:41:28.454Z,40.29
2023-02-19T10:44:00.946Z,39.48
2023-02-19T10:46:33.403Z,39.49
2023-02-19T10:49:05.202Z,39.56
2023-02-19T10:51:36.512Z,40.24
2023-02-19T10:54:07.433Z,40.46
2023-02-19T10:56:38.600Z,41.04
2023-02-19T10:59:22.735Z,41.10
2023-02-19T11:02:00.266Z,41.12
2023-02-19T11:04:34.228Z,41.03
2023-02-19T11:07:10.571Z,40.95
2023-02-19T11:09:40.709Z,40.50
2023-02-19T11:12:09.962Z,40.43
2023-02-19T11:14:39.000Z,40.75
2023-02-19T11:17:08.515Z,40.40
2023-02-19T11:19:39.332Z,40.19
2023-02-19T11:22:21.603Z,39.87
2023-02-19T11:24:54.573Z,40.28
2023-02-19T11:27:25.795Z,39.89
2023-02-19T11:29:53.885Z,40.45
2023-02-19T11:32:29.407Z,40.20
2023-02-19T11:35:22.703Z,40.57
2023-02-19T11:37:58.936Z,40.48
2023-02-19T11:40:36.764Z,40.64
2023-02-19T11:43:15.014Z,41.07
2023-02-19T11:45:52.326Z,41.07
2023-02-19T11:48:57.136Z,40.99
2023-02-19T11:51:54.056Z,41.46
2023-02-19T11:54:40.942Z,41.01
2023-02-19T11:57:18.429Z,41.19
2023-02-19T11:59:57.101Z,40.64
2023-02-19T12:02:50.603Z,40.38
2023-02-19T12:05:49.329Z,40.42
2023-02-19T12:08:42.455Z,40.33
2023-02-19T12:11:23.690Z,40.69
2023-02-19T12:14:25.121Z,40.62
2023-02-19T12:17:02.015Z,40.45
2023-02-19T12:19:42.328Z,40.38
2023-02-19T12:22:30.191Z,40.37
2023-02-19T12:25:34.682Z,39.64
2023-02-19T12:28:34.796Z,39.29
2023-02-19T12:31:21.150Z,39.54
2023-02-19T12:34:30.605Z,39.39
2023-02-19T12:37:11.018Z,39.28
2023-02-19T12:39:49.306Z,39.27
2023-02-19T12:42:29.465Z,39.15
2023-02-19T12:45:02.855Z,39.74
2023-02-19T12:47:37.760Z,39.81
2023-02-19T12:50:18.241Z,39.76
2023-02-19T12:52:51.170Z,39.76
2023-02-19T12:55:26.054Z,39.87
2023-02-19T12:57:55.924Z,39.83
2023-02-19T13:00:32.603Z,39.47
2023-02-19T13:03:05.294Z,39.34
2023-02-19T13:05:45.146Z,39.18
2023-02-19T13:08:19.906Z,39.41
2023-02-19T13:10:55.028Z,39.36
2023-02-19T13:13:27.992Z,39.82
2023-02-19T13:16:01.379Z,39.66
2023-02-19T13:18:33.714Z,39.58
2023-02-19T13:21:03.251Z,39.14
2023-02-19T13:23:52.118Z,39.54
2023-02-19T13:26:56.297Z,39.53
2023-02-19T13:29:38.766Z,39.31
2023-02-19T13:32:42.381Z,39.76
2023-02-19T13:35:29.102Z,39.92
2023-02-19T13:38:02.531Z,39.94
2023-02-19T13:40:35.062Z,39.74
2023-02-19T13:43:07.995Z,39.30
2023-02-19T13:45:41.137Z,39.26
2023-02-19T13:48:25.797Z,38.87
2023-02-19T13:51:32.558Z,38.77
2023-02-19T13:54:01.522Z,39.12
2023-02-19T13:56:40.175Z,39.24
2023-02-19T13:59:27.305Z,39.35
2023-02-19T14:02:16.074Z,39.68
2023-02-19T14:04:56.964Z,40.12
2023-02-19T14:08:03.947Z,39.89
2023-02-19T14:11:02.527Z,39.99
2023-02-19T14:14:11.256Z,39.76
2023-02-19T14:17:01.287Z,40.13
2023-02-19T14:20:00.412Z,40.06
2023-02-19T14:22:47.867Z,40.27
2023-02-19T14:25:29.655Z,40.28
2023-02-19T14:28:03.143Z,40.56
2023-02-19T14:30:32.881Z,40.86
2023-02-19T14:33:11.747Z,40.98
2023-02-19T14:35:43.951Z,41.36
2023-02-19T14:38:18.191Z,41.58
2023-02-19T14:40:48.136Z,41.72
2023-02-19T14:43:19.074Z,41.95
2023-02-19T14:45:52.673Z,42.02
2023-02-19T14:48:26.847Z,42.27
2023-02-19T14:50:59.421Z,41.90
2023-02-19T14:53:30.755Z,41.67
2023-02-19T14:56:01.412Z,41.11
2023-02-19T14:58:32.982Z,40.77
2023-02-19T15:01:01.249Z,40.96
2023-02-19T15:03:34.570Z,41.03
2023-02-19T15:06:06.721Z,40.90
2023-02-19T15:08:39.314Z,40.82
2023-02-19T15:11:12.834Z,41.13
2023-02-19T15:13:45.742Z,41.28
2023-02-19T15:16:19.833Z,41.28
2023-02-19T15:18:51.901Z,41.63
2023-02-19T15:21:25.713Z,41.83
2023-02-19T15:23:56.099Z,42.01
2023-02-19T15:26:29.415Z,42.22
2023-02-19T15:29:01.298Z,42.42
2023-02-19T15:31:29.801Z,42.71
2023-02-19T15:33:59.342Z,42.79
2023-02-19T15:36:31.414Z,43.24
2023-02-19T15:39:02.351Z,43.37
2023-02-19T15:41:34.799Z,43.32
2023-02-19T15:44:26.500Z,43.34
2023-02-19T15:46:55.829Z,43.43
2023-02-19T15:49:31.094Z,43.40
2023-02-19T15:52:03.922Z,43.55
2023-02-19T15:54:36.087Z,43.57
2023-02-19T15:57:09.068Z,43.60
2023-02-19T15:59:41.553Z,43.65
2023-02-19T16:02:13.191Z,43.63
2023-02-19T16:04:46.313Z,43.97
2023-02-19T16:07:26.367Z,44.23
2023-02-19T16:10:20.823Z,44.81
2023-02-19T16:12:59.621Z,44.97
2023-02-19T16:15:28.245Z,45.33
2023-02-19T16:17:57.438Z,45.48
2023-02-19T16:20:30.006Z,45.88
2023-02-19T16:23:01.222Z,46.21
2023-02-19T16:25:41.871Z,46.45
2023-02-19T16:28:15.443Z,46.45
2023-02-19T16:30:44.198Z,46.73
2023-02-19T16:33:34.810Z,46.84
2023-02-19T16:36:21.400Z,46.39
2023-02-19T16:39:20.114Z,46.50
2023-02-19T16:42:15.649Z,46.84
2023-02-19T16:44:44.826Z,47.01
2023-02-19T16:47:29.633Z,47.40
2023-02-19T16:49:59.734Z,47.61
2023-02-19T16:52:30.187Z,47.65
2023-02-19T16:54:58.348Z,47.59
2023-02-19T16:57:26.546Z,47.47
2023-02-19T16:59:54.766Z,47.45
2023-02-19T17:02:25.304Z,47.35
2023-02-19T17:04:55.313Z,47.48
2023-02-19T17:07:23.946Z,47.42
2023-02-19T17:09:53.459Z,47.41
2023-02-19T17:12:22.259Z,47.68
2023-02-19T17:14:50.361Z,47.89
2023-02-19T17:17:18.557Z,48.03
2023-02-19T17:19:46.773Z,48.43
2023-02-19T17:22:17.313Z,48.49
2023-02-19T17:24:46.063Z,49.02
2023-02-19T17:27:15.922Z,49.34
2023-02-19T17:29:44.062Z,49.42
2023-02-19T17:32:14.533Z,49.79
2023-02-19T17:34:42.837Z,50.02
2023-02-19T17:37:11.107Z,50.35
2023-02-19T17:39:39.517Z,50.33
2023-02-19T17:42:07.743Z,50.43
2023-02-19T17:44:37.360Z,50.38
2023-02-19T17:47:05.541Z,50.53
2023-02-19T17:49:33.614Z,50.92
2023-02-19T17:52:01.721Z,50.73
2023-02-19T17:54:30.031Z,50.95
2023-02-19T17:56:58.120Z,50.89
2023-02-19T17:59:26.272Z,50.98
2023-02-19T18:01:55.819Z,50.76
2023-02-19T18:04:24.127Z,50.56
2023-02-19T18:06:54.066Z,50.78
2023-02-19T18:09:23.071Z,50.70
2023-02-19T18:11:51.137Z,50.74
2023-02-19T18:14:19.274Z,50.81
2023-02-19T18:16:50.033Z,51.09
2023-02-19T18:19:20.134Z,51.24
2023-02-19T18:21:48.302Z,51.41
2023-02-19T18:24:16.796Z,51.55
2023-02-19T18:26:45.106Z,51.83
2023-02-19T18:29:13.263Z,51.79
2023-02-19T18:31:41.491Z,51.86
2023-02-19T18:34:18.143Z,51.94
2023-02-19T18:36:48.458Z,52.25
2023-02-19T18:39:17.213Z,52.46
2023-02-19T18:41:48.910Z,52.36
2023-02-19T18:44:20.240Z,52.49
2023-02-19T18:46:48.384Z,52.72
2023-02-19T18:49:17.129Z,52.91
2023-02-19T18:51:45.355Z,53.00
2023-02-19T18:54:15.080Z,53.11
2023-02-19T18:56:44.223Z,53.13
2023-02-19T18:59:12.947Z,53.24
2023-02-19T19:01:41.529Z,53.07
2023-02-19T19:04:09.897Z,53.15
2023-02-19T19:06:38.060Z,53.34
2023-02-19T19:09:07.330Z,53.28
2023-02-19T19:11:37.236Z,53.37
2023-02-19T19:14:05.969Z,53.35
2023-02-19T19:16:34.051Z,53.51
2023-02-19T19:19:02.821Z,53.64
2023-02-19T19:21:31.757Z,53.92
2023-02-19T19:23:59.922Z,54.15
2023-02-19T19:26:28.188Z,54.24
2023-02-19T19:28:57.965Z,54.42
2023-02-19T19:31:26.338Z,54.63
2023-02-19T19:33:54.491Z,54.80
2023-02-19T19:36:24.429Z,54.50
2023-02-19T19:38:52.575Z,54.36
2023-02-19T19:41:21.756Z,54.20
2023-02-19T19:43:50.091Z,53.68
2023-02-19T19:46:20.719Z,53.83
2023-02-19T19:48:50.489Z,53.86
2023-02-19T19:51:18.858Z,53.85
2023-02-19T19:53:48.355Z,53.74
2023-02-19T19:56:17.048Z,53.84
2023-02-19T19:58:46.317Z,53.78
2023-02-19T20:01:15.215Z,53.95
2023-02-19T20:03:44.718Z,54.15
2023-02-19T20:06:12.909Z,54.44
2023-02-19T20:08:41.118Z,54.94
2023-02-19T20:11:09.429Z,54.90
2023-02-19T20:13:37.752Z,54.80
2023-02-19T20:16:10.844Z,54.57
2023-02-19T20:18:39.390Z,54.85
2023-02-19T20:21:11.914Z,55.11
2023-02-19T20:23:40.722Z,55.44
2023-02-19T20:26:09.184Z,55.11
2023-02-19T20:28:37.322Z,55.08
2023-02-19T20:31:05.719Z,55.10
2023-02-19T20:33:33.802Z,55.02
2023-02-19T20:36:02.572Z,54.84
2023-02-19T20:38:32.167Z,54.68
2023-02-19T20:41:00.264Z,54.88
2023-02-19T20:43:28.636Z,55.23
2023-02-19T20:45:56.768Z,55.28
2023-02-19T20:48:24.867Z,55.07
2023-02-19T20:50:59.295Z,55.07
2023-02-19T20:53:27.460Z,54.85
2023-02-19T20:55:57.118Z,54.83
2023-02-19T20:58:25.698Z,54.79
2023-02-19T21:00:54.560Z,54.88
2023-02-19T21:03:22.865Z,55.05
2023-02-19T21:05:51.001Z,54.88
2023-02-19T21:08:19.166Z,54.91
2023-02-19T21:10:47.970Z,55.21
2023-02-19T21:13:17.647Z,54.76
2023-02-19T21:15:45.886Z,54.80
2023-02-19T21:18:13.952Z,54.78
2023-02-19T21:20:42.126Z,55.19
2023-02-19T21:23:10.250Z,55.14
2023-02-19T21:25:38.338Z,55.15
2023-02-19T21:28:09.216Z,54.97
2023-02-19T21:30:39.053Z,55.25
2023-02-19T21:33:07.170Z,55.24
2023-02-19T21:35:35.241Z,55.20
2023-02-19T21:38:03.630Z,55.19
2023-02-19T21:40:33.028Z,55.35
2023-02-19T21:43:01.869Z,55.37
2023-02-19T21:45:29.988Z,55.77
2023-02-19T21:47:59.666Z,55.91
2023-02-19T21:50:27.760Z,55.86
2023-02-19T21:52:55.833Z,56.17
2023-02-19T21:55:23.901Z,56.26
2023-02-19T21:57:52.065Z,56.92
2023-02-19T22:00:23.080Z,57.78
2023-02-19T22:02:51.327Z,58.82
2023-02-19T22:05:20.894Z,59.80
2023-02-19T22:07:49.194Z,60.98
2023-02-19T22:10:18.937Z,62.27
2023-02-19T22:12:47.105Z,64.07
2023-02-19T22:15:15.336Z,67.24
2023-02-19T22:17:43.435Z,67.07
2023-02-19T22:20:12.217Z,67.66
2023-02-19T22:22:41.885Z,70.37
2023-02-19T22:25:10.159Z,70.83
2023-02-19T22:27:38.482Z,71.61
2023-02-19T22:30:07.928Z,73.26
2023-02-19T22:32:36.379Z,75.11
2023-02-19T22:35:04.755Z,74.34
2023-02-19T22:37:32.996Z,74.89
2023-02-19T22:40:02.650Z,75.56
2023-02-19T22:42:30.850Z,74.82
2023-02-19T22:44:59.561Z,75.12
2023-02-19T22:47:27.842Z,74.51
2023-02-19T22:49:56.078Z,74.50
2023-02-19T22:52:28.177Z,74.87
2023-02-19T22:54:56.887Z,75.24
2023-02-19T22:57:26.537Z,76.10
2023-02-19T22:59:54.838Z,76.46
2023-02-19T23:02:23.139Z,75.60
2023-02-19T23:04:51.580Z,75.74
2023-02-19T23:07:20.112Z,76.81
2023-02-19T23:09:48.462Z,75.74
2023-02-19T23:12:17.039Z,74.87
2023-02-19T23:14:47.647Z,73.78
2023-02-19T23:17:16.040Z,73.38
2023-02-19T23:19:44.269Z,73.12
2023-02-19T23:22:12.628Z,72.66
2023-02-19T23:24:40.966Z,72.60
2023-02-19T23:27:09.178Z,72.47
2023-02-19T23:29:37.431Z,72.25
2023-02-19T23:32:07.193Z,71.92
2023-02-19T23:34:35.536Z,71.37
2023-02-19T23:37:03.956Z,71.36
2023-02-19T23:39:32.383Z,71.41
2023-02-19T23:42:00.742Z,71.30
2023-02-19T23:44:28.977Z,70.59
2023-02-19T23:46:57.224Z,69.79
2023-02-19T23:49:27.886Z,69.28
2023-02-19T23:51:56.138Z,68.82
2023-02-19T23:54:24.295Z,68.07
2023-02-19T23:56:52.538Z,67.21
2023-02-19T23:59:20.912Z,66.42
